sensor_id;sensor_type;location;lat;lon;timestamp;temperature;humidity
80964;DHT22;70425;59.322;13.486;2023-12-20T04:07:13;2.90;99.90
80964;DHT22;70425;59.322;13.486;2023-12-20T04:14:20;3.20;99.90
80964;DHT22;70425;59.322;13.486;2023-12-20T04:21:09;3.20;99.90
80964;DHT22;70425;59.322;13.486;2023-12-20T04:27:37;3.20;99.90
80964;DHT22;70425;59.322;13.486;2023-12-20T04:38:17;3.20;99.90
80964;DHT22;70425;59.322;13.486;2023-12-20T04:41:22;3.20;99.90
80964;DHT22;70425;59.322;13.486;2023-12-20T04:44:31;3.20;99.90
80964;DHT22;70425;59.322;13.486;2023-12-20T04:47:48;3.20;99.90
80964;DHT22;70425;59.322;13.486;2023-12-20T04:50:53;3.30;99.90
80964;DHT22;70425;59.322;13.486;2023-12-20T04:54:05;3.40;99.90
80964;DHT22;70425;59.322;13.486;2023-12-20T05:20:19;3.60;99.90
80964;DHT22;70425;59.322;13.486;2023-12-20T05:23:15;3.50;99.90
80964;DHT22;70425;59.322;13.486;2023-12-20T05:26:19;3.50;99.90
80964;DHT22;70425;59.322;13.486;2023-12-20T16:39:28;0.70;99.90
80964;DHT22;70425;59.322;13.486;2023-12-20T16:43:12;0.70;99.90
80964;DHT22;70425;59.322;13.486;2023-12-20T17:45:24;0.20;99.90
80964;DHT22;70425;59.322;13.486;2023-12-20T18:34:12;0.10;99.90
80964;DHT22;70425;59.322;13.486;2023-12-20T18:37:06;0.00;99.90
80964;DHT22;70425;59.322;13.486;2023-12-20T18:40:18;0.00;99.90
80964;DHT22;70425;59.322;13.486;2023-12-20T18:46:59;0.00;99.90
80964;DHT22;70425;59.322;13.486;2023-12-20T18:49:55;-0.10;99.90
80964;DHT22;70425;59.322;13.486;2023-12-20T18:52:48;-0.20;99.90
80964;DHT22;70425;59.322;13.486;2023-12-20T18:55:40;-0.20;99.90
80964;DHT22;70425;59.322;13.486;2023-12-20T18:58:39;-0.30;99.90
80964;DHT22;70425;59.322;13.486;2023-12-20T19:01:35;-0.30;99.90
80964;DHT22;70425;59.322;13.486;2023-12-20T19:04:30;-0.30;99.90
80964;DHT22;70425;59.322;13.486;2023-12-20T19:07:33;-0.30;99.90
80964;DHT22;70425;59.322;13.486;2023-12-20T19:10:30;-0.20;99.90
80964;DHT22;70425;59.322;13.486;2023-12-20T19:16:09;-0.30;99.90
80964;DHT22;70425;59.322;13.486;2023-12-20T19:19:05;-0.30;99.90
80964;DHT22;70425;59.322;13.486;2023-12-20T19:22:00;-0.30;99.90
80964;DHT22;70425;59.322;13.486;2023-12-20T19:27:43;-0.20;99.90
80964;DHT22;70425;59.322;13.486;2023-12-20T19:30:38;-0.20;99.90
80964;DHT22;70425;59.322;13.486;2023-12-20T19:33:43;-0.20;99.90
80964;DHT22;70425;59.322;13.486;2023-12-20T19:36:47;-0.20;99.90
80964;DHT22;70425;59.322;13.486;2023-12-20T19:42:52;-0.20;99.90
80964;DHT22;70425;59.322;13.486;2023-12-20T19:45:45;-0.30;99.90
80964;DHT22;70425;59.322;13.486;2023-12-20T19:52:46;-0.40;99.90
80964;DHT22;70425;59.322;13.486;2023-12-20T19:55:39;-0.40;99.90
80964;DHT22;70425;59.322;13.486;2023-12-20T19:58:29;-0.40;99.90
80964;DHT22;70425;59.322;13.486;2023-12-20T20:01:20;-0.50;99.90
80964;DHT22;70425;59.322;13.486;2023-12-20T20:07:02;-0.50;99.90
80964;DHT22;70425;59.322;13.486;2023-12-20T20:09:53;-0.50;99.90
80964;DHT22;70425;59.322;13.486;2023-12-20T20:12:44;-0.50;99.90
80964;DHT22;70425;59.322;13.486;2023-12-20T20:15:34;-0.50;99.90
80964;DHT22;70425;59.322;13.486;2023-12-20T20:18:24;-0.50;99.90
80964;DHT22;70425;59.322;13.486;2023-12-20T20:21:13;-0.50;99.90
80964;DHT22;70425;59.322;13.486;2023-12-20T20:24:03;-0.50;99.90
80964;DHT22;70425;59.322;13.486;2023-12-20T20:26:54;-0.50;99.90
80964;DHT22;70425;59.322;13.486;2023-12-20T20:32:27;-0.60;99.90
80964;DHT22;70425;59.322;13.486;2023-12-20T20:38:17;-0.50;99.90
80964;DHT22;70425;59.322;13.486;2023-12-20T20:41:08;-0.50;99.90
80964;DHT22;70425;59.322;13.486;2023-12-20T20:43:58;-0.50;99.90
80964;DHT22;70425;59.322;13.486;2023-12-20T20:46:49;-0.50;99.90
80964;DHT22;70425;59.322;13.486;2023-12-20T20:49:39;-0.60;99.90
80964;DHT22;70425;59.322;13.486;2023-12-20T20:56:57;-0.60;99.90
80964;DHT22;70425;59.322;13.486;2023-12-20T20:59:52;-0.60;99.90
80964;DHT22;70425;59.322;13.486;2023-12-20T21:02:42;-0.70;99.90
80964;DHT22;70425;59.322;13.486;2023-12-20T21:05:35;-0.70;99.90
80964;DHT22;70425;59.322;13.486;2023-12-20T21:08:31;-0.70;99.90
80964;DHT22;70425;59.322;13.486;2023-12-20T21:11:24;-0.70;99.90
80964;DHT22;70425;59.322;13.486;2023-12-20T21:20:25;-0.70;99.90
80964;DHT22;70425;59.322;13.486;2023-12-20T21:23:19;-0.80;99.90
80964;DHT22;70425;59.322;13.486;2023-12-20T21:26:18;-0.80;99.90
80964;DHT22;70425;59.322;13.486;2023-12-20T21:32:42;-0.70;99.90
80964;DHT22;70425;59.322;13.486;2023-12-20T21:35:56;-0.70;99.90
80964;DHT22;70425;59.322;13.486;2023-12-20T21:38:50;-0.70;99.90
80964;DHT22;70425;59.322;13.486;2023-12-20T21:41:48;-0.70;99.90
80964;DHT22;70425;59.322;13.486;2023-12-20T21:44:49;-0.80;99.90
80964;DHT22;70425;59.322;13.486;2023-12-20T21:47:41;-0.80;99.90
80964;DHT22;70425;59.322;13.486;2023-12-20T21:56:08;-0.80;99.90
80964;DHT22;70425;59.322;13.486;2023-12-20T21:59:00;-0.60;99.90
80964;DHT22;70425;59.322;13.486;2023-12-20T22:05:47;-0.70;99.90
80964;DHT22;70425;59.322;13.486;2023-12-20T22:08:37;-0.70;99.90
80964;DHT22;70425;59.322;13.486;2023-12-20T22:11:29;-0.80;99.90
80964;DHT22;70425;59.322;13.486;2023-12-20T22:14:18;-0.80;99.90
80964;DHT22;70425;59.322;13.486;2023-12-20T22:17:07;-0.80;99.90
80964;DHT22;70425;59.322;13.486;2023-12-20T22:20:00;-0.90;99.90
80964;DHT22;70425;59.322;13.486;2023-12-20T22:22:49;-1.00;99.90
80964;DHT22;70425;59.322;13.486;2023-12-20T22:25:42;-1.10;99.90
80964;DHT22;70425;59.322;13.486;2023-12-20T22:32:46;-1.10;99.90
80964;DHT22;70425;59.322;13.486;2023-12-20T22:39:43;-1.00;99.90
80964;DHT22;70425;59.322;13.486;2023-12-20T22:42:33;-1.00;99.90
80964;DHT22;70425;59.322;13.486;2023-12-20T22:45:27;-1.10;99.90
80964;DHT22;70425;59.322;13.486;2023-12-20T22:48:19;-1.10;99.90
80964;DHT22;70425;59.322;13.486;2023-12-20T22:51:11;-1.20;99.90
80964;DHT22;70425;59.322;13.486;2023-12-20T22:54:00;-1.20;99.90
80964;DHT22;70425;59.322;13.486;2023-12-20T22:56:52;-1.20;99.90
80964;DHT22;70425;59.322;13.486;2023-12-20T22:59:43;-1.20;99.90
80964;DHT22;70425;59.322;13.486;2023-12-20T23:02:33;-1.20;99.90
80964;DHT22;70425;59.322;13.486;2023-12-20T23:05:25;-1.20;99.90
80964;DHT22;70425;59.322;13.486;2023-12-20T23:08:15;-1.20;99.90
80964;DHT22;70425;59.322;13.486;2023-12-20T23:11:05;-1.30;99.90
80964;DHT22;70425;59.322;13.486;2023-12-20T23:16:51;-1.20;99.90
80964;DHT22;70425;59.322;13.486;2023-12-20T23:19:48;-1.30;99.90
80964;DHT22;70425;59.322;13.486;2023-12-20T23:22:37;-1.20;99.90
80964;DHT22;70425;59.322;13.486;2023-12-20T23:25:27;-1.20;99.90
80964;DHT22;70425;59.322;13.486;2023-12-20T23:47:11;-1.30;99.90
80964;DHT22;70425;59.322;13.486;2023-12-20T23:50:00;-1.20;99.90
80964;DHT22;70425;59.322;13.486;2023-12-20T23:52:49;-1.40;99.90
80964;DHT22;70425;59.322;13.486;2023-12-20T23:55:38;-1.50;99.90
